createdAt,value
2022-10-11T00:27:54.096Z,1023.68
2022-10-11T00:56:54.793Z,1023.7
2022-10-11T01:25:57.936Z,1023.77
2022-10-11T01:55:11.035Z,1023.82
2022-10-11T02:23:27.434Z,1023.7
2022-10-11T02:52:20.649Z,1023.8
2022-10-11T03:21:24.476Z,1023.87
2022-10-11T03:50:26.441Z,1023.93
2022-10-11T04:19:28.129Z,1024.02
2022-10-11T04:48:27.157Z,1024.09
2022-10-11T05:17:28.756Z,1024.27
2022-10-11T05:46:30.846Z,1024.5
2022-10-11T06:15:33.338Z,1024.76
2022-10-11T06:44:37.668Z,1025.18
2022-10-11T07:13:39.509Z,1025.49
2022-10-11T07:42:28.094Z,1025.64
2022-10-11T08:11:31.844Z,1025.63
2022-10-11T08:40:35.945Z,1025.93
2022-10-11T09:09:01.970Z,1026.03
2022-10-11T09:38:00.185Z,1025.98
2022-10-11T10:07:05.601Z,1026.08
2022-10-11T10:36:10.355Z,1026.03
2022-10-11T11:05:13.344Z,1025.97
2022-10-11T11:34:14.623Z,1025.66
2022-10-11T12:02:47.674Z,1025.49
2022-10-11T12:31:47.021Z,1025.45
2022-10-11T13:00:27.540Z,1025.27
2022-10-11T13:29:30.744Z,1025.2
2022-10-11T13:58:30.588Z,1025.09
2022-10-11T14:27:08.924Z,1025.1
2022-10-11T14:56:09.830Z,1025.09
2022-10-11T15:25:08.685Z,1025
2022-10-11T15:54:02.378Z,1024.9
2022-10-11T16:22:56.422Z,1024.82
2022-10-11T16:51:54.982Z,1024.77
2022-10-11T17:20:54.572Z,1024.82
2022-10-11T17:49:55.263Z,1024.99
2022-10-11T18:18:43.483Z,1025.06
2022-10-11T18:47:33.241Z,1025
2022-10-11T19:16:33.377Z,1024.97
2022-10-11T19:45:21.943Z,1025.04
2022-10-11T20:14:13.711Z,1025.16
2022-10-11T20:43:06.815Z,1025.17
2022-10-11T21:12:00.209Z,1025.27
2022-10-11T21:40:51.580Z,1025.2
2022-10-11T22:09:50.864Z,1025.07
2022-10-11T22:38:48.886Z,1025.02
2022-10-11T23:07:44.266Z,1025.05
2022-10-11T23:36:47.366Z,1025
